createdAt,value
2022-07-29T00:01:21.186Z,102129.22
2022-07-29T00:06:25.372Z,102123.56
2022-07-29T00:11:27.121Z,102121.06
2022-07-29T00:16:30.331Z,102129.94
2022-07-29T00:21:34.644Z,102122.84
2022-07-29T00:26:41.624Z,102113.25
2022-07-29T00:31:44.341Z,102105.34
2022-07-29T00:36:46.121Z,102107.59
2022-07-29T00:41:50.627Z,102103.59
2022-07-29T00:46:54.757Z,102103.25
2022-07-29T00:51:59.551Z,102105.13
2022-07-29T00:57:01.509Z,102094.34
2022-07-29T01:02:06.080Z,102095.09
2022-07-29T01:07:11.497Z,102086.66
2022-07-29T01:12:30.628Z,102085.22
2022-07-29T01:17:52.782Z,102077.88
2022-07-29T01:23:10.131Z,102075.94
2022-07-29T01:28:21.001Z,102062.16
2022-07-29T01:33:45.218Z,102054.91
2022-07-29T01:38:55.729Z,102054.25
2022-07-29T01:44:03.866Z,102045.91
2022-07-29T01:49:17.203Z,102043.56
2022-07-29T01:54:43.914Z,102041.41
2022-07-29T01:59:49.754Z,102030.16
2022-07-29T02:04:52.181Z,102031.38
2022-07-29T02:09:54.263Z,102017.06
2022-07-29T02:14:58.056Z,102020.59
2022-07-29T02:20:05.309Z,102015.56
2022-07-29T02:25:14.053Z,102004.31
2022-07-29T02:30:21.733Z,101998.25
2022-07-29T02:35:28.178Z,102003.66
2022-07-29T02:40:43.855Z,102002.34
2022-07-29T02:45:46.244Z,101998.19
2022-07-29T02:51:06.551Z,101999.38
2022-07-29T02:56:16.823Z,101994.72
2022-07-29T03:01:33.881Z,101991.13
2022-07-29T03:06:40.822Z,101995.59
2022-07-29T03:11:49.988Z,101980.78
2022-07-29T03:16:54.918Z,101993.13
2022-07-29T03:21:58.513Z,101990.44
2022-07-29T03:27:00.560Z,101987.75
2022-07-29T03:32:08.620Z,101982.00
2022-07-29T03:37:10.652Z,101973.72
2022-07-29T03:42:15.204Z,101975.75
2022-07-29T03:47:39.323Z,101969.34
2022-07-29T03:52:49.105Z,101974.75
2022-07-29T03:57:53.791Z,101973.53
2022-07-29T04:03:00.827Z,101975.41
2022-07-29T04:08:03.612Z,101965.28
2022-07-29T04:13:05.949Z,101966.94
2022-07-29T04:18:08.656Z,101977.53
2022-07-29T04:23:15.347Z,101969.94
2022-07-29T04:28:19.231Z,101965.81
2022-07-29T04:33:23.282Z,101966.47
2022-07-29T04:38:30.326Z,101959.03
2022-07-29T04:43:37.034Z,101964.91
2022-07-29T04:48:41.173Z,101962.66
2022-07-29T04:53:43.189Z,101962.66
2022-07-29T04:58:54.957Z,101956.25
2022-07-29T05:04:00.280Z,101962.47
2022-07-29T05:09:06.094Z,101960.63
2022-07-29T05:14:10.584Z,101961.06
2022-07-29T05:19:14.620Z,101962.94
2022-07-29T05:24:19.668Z,101954.19
2022-07-29T05:29:42.763Z,101962.09
2022-07-29T05:34:50.889Z,101963.59
2022-07-29T05:39:57.199Z,101959.69
2022-07-29T05:45:02.288Z,101955.19
2022-07-29T05:50:05.385Z,101960.88
2022-07-29T05:55:09.497Z,101963.66
2022-07-29T06:00:11.687Z,101974.31
2022-07-29T06:05:18.784Z,101969.88
2022-07-29T06:10:26.986Z,101971.22
2022-07-29T06:15:32.115Z,101966.59
2022-07-29T06:20:36.256Z,101961.09
2022-07-29T06:25:44.791Z,101968.91
2022-07-29T06:30:46.630Z,101964.66
2022-07-29T06:35:53.224Z,101962.28
2022-07-29T06:41:05.013Z,101964.63
2022-07-29T06:46:13.478Z,101966.38
2022-07-29T06:51:15.667Z,101961.06
2022-07-29T06:56:22.573Z,101961.38
2022-07-29T07:01:26.034Z,101971.13
2022-07-29T07:06:30.062Z,101974.50
2022-07-29T07:11:34.969Z,101979.53
2022-07-29T07:16:38.973Z,101962.72
2022-07-29T07:21:41.459Z,101966.72
2022-07-29T07:26:45.762Z,101975.13
2022-07-29T07:31:50.402Z,101970.56
2022-07-29T07:36:54.603Z,101972.84
2022-07-29T07:41:56.513Z,101969.34
2022-07-29T07:47:03.880Z,101963.13
2022-07-29T07:52:18.774Z,101969.88
2022-07-29T07:57:23.598Z,101961.97
2022-07-29T08:02:26.283Z,101968.03
2022-07-29T08:07:28.063Z,101970.53
2022-07-29T08:12:34.659Z,101976.78
2022-07-29T08:17:36.476Z,101980.56
2022-07-29T08:22:47.329Z,101963.25
2022-07-29T08:27:49.470Z,101951.34
2022-07-29T08:32:54.990Z,101960.72
2022-07-29T08:37:57.984Z,101944.16
2022-07-29T08:43:06.509Z,101939.78
2022-07-29T08:48:10.144Z,101951.22
2022-07-29T08:53:20.634Z,101946.16
2022-07-29T08:58:24.603Z,101952.19
2022-07-29T09:03:31.569Z,101953.91
2022-07-29T09:08:34.856Z,101954.13
2022-07-29T09:13:37.063Z,101954.50
2022-07-29T09:18:49.551Z,101952.66
2022-07-29T09:24:10.713Z,101953.94
2022-07-29T09:29:18.806Z,101953.69
2022-07-29T09:34:32.645Z,101951.13
2022-07-29T09:39:45.174Z,101959.09
2022-07-29T09:44:49.825Z,101952.59
2022-07-29T09:49:59.003Z,101952.88
2022-07-29T09:55:17.895Z,101948.03
2022-07-29T10:00:21.134Z,101949.31
2022-07-29T10:05:25.092Z,101951.44
2022-07-29T10:10:34.158Z,101945.44
2022-07-29T10:15:42.517Z,101943.81
2022-07-29T10:20:48.091Z,101947.25
2022-07-29T10:25:50.159Z,101939.88
2022-07-29T10:30:52.910Z,101936.97
2022-07-29T10:36:09.768Z,101925.00
2022-07-29T10:41:31.996Z,101929.63
2022-07-29T10:46:41.271Z,101919.31
2022-07-29T10:51:59.126Z,101917.47
2022-07-29T10:57:53.776Z,101922.22
2022-07-29T11:02:52.948Z,101923.34
2022-07-29T11:08:20.136Z,101906.59
2022-07-29T11:13:52.311Z,101908.94
2022-07-29T11:19:13.233Z,101923.91
2022-07-29T11:24:28.740Z,101907.91
2022-07-29T11:29:32.371Z,101911.56
2022-07-29T11:34:42.479Z,101914.59
2022-07-29T11:40:01.535Z,101905.66
2022-07-29T11:45:43.797Z,101916.91
2022-07-29T11:50:44.606Z,101910.41
2022-07-29T11:55:59.236Z,101909.81
2022-07-29T12:01:04.119Z,101902.38
2022-07-29T12:06:18.610Z,101900.16
2022-07-29T12:11:26.082Z,101902.44
2022-07-29T12:16:38.027Z,101898.66
2022-07-29T12:21:56.990Z,101900.25
2022-07-29T12:27:02.792Z,101903.34
2022-07-29T12:32:14.640Z,101898.22
2022-07-29T12:37:21.224Z,101889.22
2022-07-29T12:43:03.129Z,101883.84
2022-07-29T12:48:09.629Z,101880.41
2022-07-29T12:53:13.520Z,101885.78
2022-07-29T12:58:27.163Z,101874.47
2022-07-29T13:03:45.198Z,101871.03
2022-07-29T13:09:17.914Z,101879.31
2022-07-29T13:14:32.775Z,101875.13
2022-07-29T13:19:44.699Z,101878.22
2022-07-29T13:24:55.824Z,101863.94
2022-07-29T13:29:58.979Z,101879.00
2022-07-29T13:35:07.140Z,101874.97
2022-07-29T13:40:11.857Z,101861.81
2022-07-29T13:45:17.005Z,101858.94
2022-07-29T13:50:18.743Z,101856.75
2022-07-29T13:55:20.645Z,101863.06
2022-07-29T14:00:24.680Z,101861.09
2022-07-29T14:05:26.694Z,101851.13
2022-07-29T14:10:29.378Z,101854.97
2022-07-29T14:15:31.162Z,101859.59
2022-07-29T14:20:35.232Z,101859.50
2022-07-29T14:25:47.522Z,101854.44
2022-07-29T14:30:53.554Z,101855.16
2022-07-29T14:36:01.078Z,101845.53
2022-07-29T14:41:05.820Z,101850.19
2022-07-29T14:46:08.947Z,101852.75
2022-07-29T14:51:13.068Z,101845.72
2022-07-29T14:56:36.642Z,101840.38
2022-07-29T15:01:39.405Z,101833.63
2022-07-29T15:06:41.285Z,101828.28
2022-07-29T15:11:43.106Z,101836.91
2022-07-29T15:16:48.661Z,101830.69
2022-07-29T15:21:59.175Z,101838.88
2022-07-29T15:27:06.501Z,101828.88
2022-07-29T15:32:08.842Z,101836.06
2022-07-29T15:37:12.449Z,101838.88
2022-07-29T15:42:19.402Z,101837.31
2022-07-29T15:47:21.234Z,101832.47
2022-07-29T15:52:25.223Z,101829.25
2022-07-29T15:57:31.230Z,101830.97
2022-07-29T16:02:32.970Z,101829.22
2022-07-29T16:07:37.759Z,101822.59
2022-07-29T16:12:41.947Z,101826.22
2022-07-29T16:17:43.784Z,101827.69
2022-07-29T16:22:48.253Z,101812.28
2022-07-29T16:27:50.023Z,101808.75
2022-07-29T16:32:52.898Z,101805.59
2022-07-29T16:38:01.643Z,101806.31
2022-07-29T16:43:11.942Z,101816.78
2022-07-29T16:48:18.887Z,101811.00
2022-07-29T16:53:20.654Z,101816.59
2022-07-29T16:58:22.837Z,101801.91
2022-07-29T17:03:26.876Z,101807.78
2022-07-29T17:08:35.508Z,101809.59
2022-07-29T17:13:39.667Z,101814.38
2022-07-29T17:18:47.905Z,101803.59
2022-07-29T17:23:50.525Z,101800.63
2022-07-29T17:28:52.346Z,101796.00
2022-07-29T17:33:59.875Z,101802.75
2022-07-29T17:39:05.793Z,101801.44
2022-07-29T17:44:09.489Z,101799.31
2022-07-29T17:49:13.954Z,101805.09
2022-07-29T17:54:17.963Z,101808.88
2022-07-29T17:59:22.818Z,101801.91
2022-07-29T18:04:35.057Z,101798.56
2022-07-29T18:09:39.812Z,101804.94
2022-07-29T18:14:56.054Z,101804.34
2022-07-29T18:19:57.815Z,101795.00
2022-07-29T18:25:01.482Z,101807.19
2022-07-29T18:30:06.062Z,101807.41
2022-07-29T18:35:08.340Z,101808.06
2022-07-29T18:40:12.306Z,101802.50
2022-07-29T18:45:19.347Z,101794.06
2022-07-29T18:50:25.713Z,101799.25
2022-07-29T18:55:30.589Z,101802.22
2022-07-29T19:00:35.422Z,101795.25
2022-07-29T19:05:37.302Z,101805.44
2022-07-29T19:10:42.357Z,101806.47
2022-07-29T19:15:45.589Z,101805.88
2022-07-29T19:20:47.556Z,101819.75
2022-07-29T19:25:53.600Z,101811.78
2022-07-29T19:30:58.806Z,101833.56
2022-07-29T19:36:02.210Z,101842.22
2022-07-29T19:41:07.095Z,101846.44
2022-07-29T19:46:08.890Z,101869.97
2022-07-29T19:51:13.019Z,101866.28
2022-07-29T19:56:14.805Z,101868.22
2022-07-29T20:01:19.970Z,101867.25
2022-07-29T20:06:23.078Z,101869.81
2022-07-29T20:11:25.047Z,101869.06
2022-07-29T20:16:29.017Z,101861.81
2022-07-29T20:21:31.475Z,101869.00
2022-07-29T20:26:33.269Z,101866.31
2022-07-29T20:31:35.169Z,101864.50
2022-07-29T20:36:36.953Z,101868.72
2022-07-29T20:41:42.418Z,101863.56
2022-07-29T20:46:48.896Z,101867.16
2022-07-29T20:51:50.661Z,101861.91
2022-07-29T20:56:53.186Z,101853.75
2022-07-29T21:01:55.648Z,101861.53
2022-07-29T21:06:58.114Z,101864.69
2022-07-29T21:12:02.596Z,101860.16
2022-07-29T21:17:07.918Z,101865.19
2022-07-29T21:22:12.624Z,101862.94
2022-07-29T21:27:32.894Z,101861.72
2022-07-29T21:32:34.735Z,101847.13
2022-07-29T21:37:42.101Z,101853.84
2022-07-29T21:42:49.113Z,101862.28
2022-07-29T21:47:53.827Z,101861.13
2022-07-29T21:52:58.665Z,101860.97
2022-07-29T21:58:02.214Z,101859.09
2022-07-29T22:03:06.470Z,101849.97
2022-07-29T22:08:13.515Z,101846.03
2022-07-29T22:13:15.492Z,101855.88
2022-07-29T22:18:20.988Z,101853.38
2022-07-29T22:23:22.950Z,101859.84
2022-07-29T22:28:27.677Z,101857.19
2022-07-29T22:33:29.455Z,101863.69
2022-07-29T22:38:31.257Z,101860.56
2022-07-29T22:43:35.610Z,101850.97
2022-07-29T22:48:38.112Z,101854.97
2022-07-29T22:53:42.393Z,101857.25
2022-07-29T22:58:44.493Z,101860.63
2022-07-29T23:03:51.154Z,101859.81
2022-07-29T23:09:00.065Z,101847.28
2022-07-29T23:14:01.992Z,101845.00
2022-07-29T23:19:06.811Z,101840.00
2022-07-29T23:24:08.582Z,101836.91
2022-07-29T23:29:15.098Z,101834.59
2022-07-29T23:34:19.201Z,101835.47
2022-07-29T23:39:20.954Z,101833.97
2022-07-29T23:44:27.413Z,101820.88
2022-07-29T23:49:31.816Z,101813.53
2022-07-29T23:54:35.884Z,101820.03
2022-07-29T23:59:40.643Z,101809.28
